sensor_id;sensor_type;location;lat;lon;timestamp;P1;durP1;ratioP1;P2;durP2;ratioP2
41219;SDS011;26951;47.338;9.196;2023-02-03T00:02:37;3.15;;;2.03;;
41219;SDS011;26951;47.338;9.196;2023-02-03T00:05:22;3.42;;;1.95;;
41219;SDS011;26951;47.338;9.196;2023-02-03T00:08:06;2.92;;;1.90;;
41219;SDS011;26951;47.338;9.196;2023-02-03T00:10:52;6.25;;;2.50;;
41219;SDS011;26951;47.338;9.196;2023-02-03T00:13:37;3.88;;;2.05;;
41219;SDS011;26951;47.338;9.196;2023-02-03T00:16:21;3.15;;;2.05;;
41219;SDS011;26951;47.338;9.196;2023-02-03T00:19:05;3.05;;;2.03;;
41219;SDS011;26951;47.338;9.196;2023-02-03T00:21:50;4.00;;;2.67;;
41219;SDS011;26951;47.338;9.196;2023-02-03T00:24:34;5.43;;;2.33;;
41219;SDS011;26951;47.338;9.196;2023-02-03T00:27:18;6.72;;;3.28;;
41219;SDS011;26951;47.338;9.196;2023-02-03T00:30:02;4.80;;;2.47;;
41219;SDS011;26951;47.338;9.196;2023-02-03T00:32:47;4.80;;;2.40;;
41219;SDS011;26951;47.338;9.196;2023-02-03T00:35:31;4.43;;;2.42;;
41219;SDS011;26951;47.338;9.196;2023-02-03T00:38:15;4.00;;;2.47;;
41219;SDS011;26951;47.338;9.196;2023-02-03T00:40:59;3.25;;;2.63;;
41219;SDS011;26951;47.338;9.196;2023-02-03T00:43:43;4.30;;;2.35;;
41219;SDS011;26951;47.338;9.196;2023-02-03T00:46:27;3.28;;;2.40;;
41219;SDS011;26951;47.338;9.196;2023-02-03T00:49:12;4.53;;;2.90;;
41219;SDS011;26951;47.338;9.196;2023-02-03T00:51:56;5.15;;;2.30;;
41219;SDS011;26951;47.338;9.196;2023-02-03T00:54:40;9.35;;;2.67;;
41219;SDS011;26951;47.338;9.196;2023-02-03T00:57:24;5.45;;;2.17;;
41219;SDS011;26951;47.338;9.196;2023-02-03T01:00:08;4.00;;;2.28;;
41219;SDS011;26951;47.338;9.196;2023-02-03T01:02:53;5.43;;;2.53;;
41219;SDS011;26951;47.338;9.196;2023-02-03T01:05:37;7.35;;;2.92;;
41219;SDS011;26951;47.338;9.196;2023-02-03T01:08:21;3.63;;;2.30;;
41219;SDS011;26951;47.338;9.196;2023-02-03T01:11:07;4.07;;;2.35;;
41219;SDS011;26951;47.338;9.196;2023-02-03T01:13:54;5.35;;;1.90;;
41219;SDS011;26951;47.338;9.196;2023-02-03T01:16:39;4.65;;;2.50;;
41219;SDS011;26951;47.338;9.196;2023-02-03T01:19:23;4.55;;;2.30;;
41219;SDS011;26951;47.338;9.196;2023-02-03T01:22:08;8.27;;;2.53;;
41219;SDS011;26951;47.338;9.196;2023-02-03T01:24:52;6.20;;;2.35;;
41219;SDS011;26951;47.338;9.196;2023-02-03T01:27:36;5.13;;;1.90;;
41219;SDS011;26951;47.338;9.196;2023-02-03T01:30:20;2.80;;;1.85;;
41219;SDS011;26951;47.338;9.196;2023-02-03T01:33:05;6.47;;;3.60;;
41219;SDS011;26951;47.338;9.196;2023-02-03T01:35:49;5.63;;;2.20;;
41219;SDS011;26951;47.338;9.196;2023-02-03T01:38:33;5.55;;;2.72;;
41219;SDS011;26951;47.338;9.196;2023-02-03T01:41:18;5.53;;;2.83;;
41219;SDS011;26951;47.338;9.196;2023-02-03T01:44:33;4.55;;;2.47;;
41219;SDS011;26951;47.338;9.196;2023-02-03T01:47:31;4.70;;;2.15;;
41219;SDS011;26951;47.338;9.196;2023-02-03T01:50:24;4.47;;;2.00;;
41219;SDS011;26951;47.338;9.196;2023-02-03T01:53:13;7.07;;;2.63;;
41219;SDS011;26951;47.338;9.196;2023-02-03T01:55:58;2.38;;;1.83;;
41219;SDS011;26951;47.338;9.196;2023-02-03T02:07:38;3.63;;;2.08;;
41219;SDS011;26951;47.338;9.196;2023-02-03T02:10:24;3.10;;;2.25;;
41219;SDS011;26951;47.338;9.196;2023-02-03T02:13:08;3.83;;;2.33;;
41219;SDS011;26951;47.338;9.196;2023-02-03T02:15:59;5.28;;;2.08;;
41219;SDS011;26951;47.338;9.196;2023-02-03T02:18:58;6.20;;;2.78;;
41219;SDS011;26951;47.338;9.196;2023-02-03T02:22:02;4.03;;;2.70;;
41219;SDS011;26951;47.338;9.196;2023-02-03T02:31:46;2.65;;;1.90;;
41219;SDS011;26951;47.338;9.196;2023-02-03T02:37:47;4.43;;;2.10;;
41219;SDS011;26951;47.338;9.196;2023-02-03T02:46:32;3.03;;;2.13;;
41219;SDS011;26951;47.338;9.196;2023-02-03T02:49:34;6.32;;;2.15;;
41219;SDS011;26951;47.338;9.196;2023-02-03T02:52:24;4.53;;;2.30;;
41219;SDS011;26951;47.338;9.196;2023-02-03T02:55:25;3.13;;;2.55;;
41219;SDS011;26951;47.338;9.196;2023-02-03T02:58:13;7.47;;;2.35;;
41219;SDS011;26951;47.338;9.196;2023-02-03T03:01:01;4.97;;;2.42;;
41219;SDS011;26951;47.338;9.196;2023-02-03T03:03:46;5.43;;;2.37;;
41219;SDS011;26951;47.338;9.196;2023-02-03T03:06:34;5.75;;;1.90;;
41219;SDS011;26951;47.338;9.196;2023-02-03T03:09:28;6.63;;;2.00;;
41219;SDS011;26951;47.338;9.196;2023-02-03T03:12:25;4.45;;;2.50;;
41219;SDS011;26951;47.338;9.196;2023-02-03T03:15:21;5.82;;;2.58;;
41219;SDS011;26951;47.338;9.196;2023-02-03T03:21:04;1.92;;;1.60;;
41219;SDS011;26951;47.338;9.196;2023-02-03T03:23:49;2.28;;;1.98;;
41219;SDS011;26951;47.338;9.196;2023-02-03T03:26:49;2.50;;;2.00;;
41219;SDS011;26951;47.338;9.196;2023-02-03T03:30:16;3.03;;;1.95;;
41219;SDS011;26951;47.338;9.196;2023-02-03T03:33:06;3.17;;;1.90;;
41219;SDS011;26951;47.338;9.196;2023-02-03T03:39:33;6.63;;;2.50;;
41219;SDS011;26951;47.338;9.196;2023-02-03T03:45:04;6.30;;;1.77;;
41219;SDS011;26951;47.338;9.196;2023-02-03T03:48:06;3.05;;;2.30;;
41219;SDS011;26951;47.338;9.196;2023-02-03T03:51:01;5.30;;;2.30;;
41219;SDS011;26951;47.338;9.196;2023-02-03T03:53:49;2.70;;;1.80;;
41219;SDS011;26951;47.338;9.196;2023-02-03T03:56:38;6.88;;;3.05;;
41219;SDS011;26951;47.338;9.196;2023-02-03T03:59:29;4.47;;;3.05;;
41219;SDS011;26951;47.338;9.196;2023-02-03T04:02:18;4.65;;;2.35;;
41219;SDS011;26951;47.338;9.196;2023-02-03T04:05:05;4.97;;;2.33;;
41219;SDS011;26951;47.338;9.196;2023-02-03T04:07:51;3.78;;;2.00;;
41219;SDS011;26951;47.338;9.196;2023-02-03T04:10:36;3.13;;;1.90;;
41219;SDS011;26951;47.338;9.196;2023-02-03T04:13:22;5.60;;;2.47;;
41219;SDS011;26951;47.338;9.196;2023-02-03T04:16:06;4.28;;;2.45;;
41219;SDS011;26951;47.338;9.196;2023-02-03T04:18:51;4.53;;;1.88;;
41219;SDS011;26951;47.338;9.196;2023-02-03T04:21:35;2.70;;;2.17;;
41219;SDS011;26951;47.338;9.196;2023-02-03T04:24:19;3.72;;;1.90;;
41219;SDS011;26951;47.338;9.196;2023-02-03T04:27:03;2.97;;;1.92;;
41219;SDS011;26951;47.338;9.196;2023-02-03T04:29:47;2.55;;;2.00;;
41219;SDS011;26951;47.338;9.196;2023-02-03T04:32:33;3.55;;;2.10;;
41219;SDS011;26951;47.338;9.196;2023-02-03T04:35:18;3.42;;;2.15;;
41219;SDS011;26951;47.338;9.196;2023-02-03T04:38:02;2.78;;;2.05;;
41219;SDS011;26951;47.338;9.196;2023-02-03T04:40:46;4.57;;;2.17;;
41219;SDS011;26951;47.338;9.196;2023-02-03T04:43:31;3.28;;;1.98;;
41219;SDS011;26951;47.338;9.196;2023-02-03T04:46:15;3.40;;;2.05;;
41219;SDS011;26951;47.338;9.196;2023-02-03T04:49:00;3.45;;;2.50;;
41219;SDS011;26951;47.338;9.196;2023-02-03T04:51:44;3.88;;;2.22;;
41219;SDS011;26951;47.338;9.196;2023-02-03T04:54:31;4.00;;;2.30;;
41219;SDS011;26951;47.338;9.196;2023-02-03T04:57:16;4.50;;;2.10;;
41219;SDS011;26951;47.338;9.196;2023-02-03T05:00:00;6.55;;;2.38;;
41219;SDS011;26951;47.338;9.196;2023-02-03T05:02:44;2.88;;;1.73;;
41219;SDS011;26951;47.338;9.196;2023-02-03T05:05:29;6.60;;;2.20;;
41219;SDS011;26951;47.338;9.196;2023-02-03T05:08:13;3.40;;;2.00;;
41219;SDS011;26951;47.338;9.196;2023-02-03T05:10:57;6.57;;;2.50;;
41219;SDS011;26951;47.338;9.196;2023-02-03T05:13:41;2.65;;;1.90;;
41219;SDS011;26951;47.338;9.196;2023-02-03T05:16:25;3.50;;;2.10;;
41219;SDS011;26951;47.338;9.196;2023-02-03T05:19:09;2.00;;;1.80;;
41219;SDS011;26951;47.338;9.196;2023-02-03T05:21:53;2.95;;;2.13;;
41219;SDS011;26951;47.338;9.196;2023-02-03T05:24:37;5.13;;;2.00;;
41219;SDS011;26951;47.338;9.196;2023-02-03T05:27:21;4.80;;;1.95;;
41219;SDS011;26951;47.338;9.196;2023-02-03T05:30:06;3.17;;;2.30;;
41219;SDS011;26951;47.338;9.196;2023-02-03T05:35:35;3.95;;;2.67;;
41219;SDS011;26951;47.338;9.196;2023-02-03T05:38:19;4.97;;;3.20;;
41219;SDS011;26951;47.338;9.196;2023-02-03T05:41:04;4.95;;;2.55;;
41219;SDS011;26951;47.338;9.196;2023-02-03T05:44:07;4.68;;;2.53;;
41219;SDS011;26951;47.338;9.196;2023-02-03T05:46:52;4.40;;;3.10;;
41219;SDS011;26951;47.338;9.196;2023-02-03T05:49:37;7.40;;;2.95;;
41219;SDS011;26951;47.338;9.196;2023-02-03T05:52:21;6.68;;;2.08;;
41219;SDS011;26951;47.338;9.196;2023-02-03T05:55:05;5.07;;;2.30;;
41219;SDS011;26951;47.338;9.196;2023-02-03T05:57:49;3.33;;;2.17;;
41219;SDS011;26951;47.338;9.196;2023-02-03T06:00:34;2.83;;;2.30;;
41219;SDS011;26951;47.338;9.196;2023-02-03T06:03:18;2.80;;;2.22;;
41219;SDS011;26951;47.338;9.196;2023-02-03T06:06:02;3.75;;;2.28;;
41219;SDS011;26951;47.338;9.196;2023-02-03T06:08:46;2.88;;;2.20;;
41219;SDS011;26951;47.338;9.196;2023-02-03T06:11:30;1.98;;;1.80;;
41219;SDS011;26951;47.338;9.196;2023-02-03T06:14:15;4.40;;;2.05;;
41219;SDS011;26951;47.338;9.196;2023-02-03T06:16:59;2.78;;;2.20;;
41219;SDS011;26951;47.338;9.196;2023-02-03T06:19:43;3.40;;;2.05;;
41219;SDS011;26951;47.338;9.196;2023-02-03T06:22:28;3.58;;;2.20;;
41219;SDS011;26951;47.338;9.196;2023-02-03T06:25:12;3.70;;;2.08;;
41219;SDS011;26951;47.338;9.196;2023-02-03T06:27:57;6.32;;;3.13;;
41219;SDS011;26951;47.338;9.196;2023-02-03T06:30:41;6.25;;;2.38;;
41219;SDS011;26951;47.338;9.196;2023-02-03T06:33:26;3.53;;;2.20;;
41219;SDS011;26951;47.338;9.196;2023-02-03T06:36:10;3.00;;;2.55;;
41219;SDS011;26951;47.338;9.196;2023-02-03T06:38:55;2.88;;;2.08;;
41219;SDS011;26951;47.338;9.196;2023-02-03T06:41:39;6.22;;;2.20;;
41219;SDS011;26951;47.338;9.196;2023-02-03T06:44:23;6.40;;;2.15;;
41219;SDS011;26951;47.338;9.196;2023-02-03T06:47:07;3.95;;;2.30;;
41219;SDS011;26951;47.338;9.196;2023-02-03T06:49:51;2.65;;;1.98;;
41219;SDS011;26951;47.338;9.196;2023-02-03T06:52:35;3.88;;;2.00;;
41219;SDS011;26951;47.338;9.196;2023-02-03T06:55:19;2.60;;;2.10;;
41219;SDS011;26951;47.338;9.196;2023-02-03T06:58:03;2.58;;;1.73;;
41219;SDS011;26951;47.338;9.196;2023-02-03T07:00:47;4.03;;;2.00;;
41219;SDS011;26951;47.338;9.196;2023-02-03T07:03:32;6.35;;;2.47;;
41219;SDS011;26951;47.338;9.196;2023-02-03T07:06:16;3.53;;;2.25;;
41219;SDS011;26951;47.338;9.196;2023-02-03T07:09:00;4.18;;;2.83;;
41219;SDS011;26951;47.338;9.196;2023-02-03T07:11:46;5.20;;;3.78;;
41219;SDS011;26951;47.338;9.196;2023-02-03T07:14:30;5.40;;;3.03;;
41219;SDS011;26951;47.338;9.196;2023-02-03T07:17:14;15.40;;;7.72;;
41219;SDS011;26951;47.338;9.196;2023-02-03T07:19:58;9.38;;;5.45;;
41219;SDS011;26951;47.338;9.196;2023-02-03T07:22:43;5.93;;;3.25;;
41219;SDS011;26951;47.338;9.196;2023-02-03T07:25:29;3.75;;;3.05;;
41219;SDS011;26951;47.338;9.196;2023-02-03T07:28:13;3.22;;;2.55;;
41219;SDS011;26951;47.338;9.196;2023-02-03T07:30:57;7.43;;;3.10;;
41219;SDS011;26951;47.338;9.196;2023-02-03T07:33:42;3.53;;;2.50;;
41219;SDS011;26951;47.338;9.196;2023-02-03T07:36:27;3.15;;;2.08;;
41219;SDS011;26951;47.338;9.196;2023-02-03T07:39:11;3.42;;;2.03;;
41219;SDS011;26951;47.338;9.196;2023-02-03T07:41:55;3.13;;;2.03;;
41219;SDS011;26951;47.338;9.196;2023-02-03T07:44:39;4.78;;;2.25;;
41219;SDS011;26951;47.338;9.196;2023-02-03T07:47:23;3.75;;;2.25;;
41219;SDS011;26951;47.338;9.196;2023-02-03T07:50:08;6.65;;;2.65;;
41219;SDS011;26951;47.338;9.196;2023-02-03T07:52:54;3.38;;;2.15;;
41219;SDS011;26951;47.338;9.196;2023-02-03T07:55:38;3.15;;;2.47;;
41219;SDS011;26951;47.338;9.196;2023-02-03T07:58:23;2.15;;;1.95;;
41219;SDS011;26951;47.338;9.196;2023-02-03T08:01:14;3.47;;;1.83;;
41219;SDS011;26951;47.338;9.196;2023-02-03T08:03:59;2.97;;;2.47;;
41219;SDS011;26951;47.338;9.196;2023-02-03T08:06:44;3.03;;;1.75;;
41219;SDS011;26951;47.338;9.196;2023-02-03T08:09:28;2.75;;;1.80;;
41219;SDS011;26951;47.338;9.196;2023-02-03T08:12:12;2.88;;;2.05;;
41219;SDS011;26951;47.338;9.196;2023-02-03T08:14:57;2.85;;;2.03;;
41219;SDS011;26951;47.338;9.196;2023-02-03T08:17:41;2.55;;;1.73;;
41219;SDS011;26951;47.338;9.196;2023-02-03T08:20:27;2.13;;;1.63;;
41219;SDS011;26951;47.338;9.196;2023-02-03T08:23:11;2.70;;;1.80;;
41219;SDS011;26951;47.338;9.196;2023-02-03T08:25:55;2.25;;;1.90;;
41219;SDS011;26951;47.338;9.196;2023-02-03T08:28:39;2.53;;;1.98;;
41219;SDS011;26951;47.338;9.196;2023-02-03T08:31:23;5.38;;;2.05;;
41219;SDS011;26951;47.338;9.196;2023-02-03T08:34:07;3.70;;;1.60;;
41219;SDS011;26951;47.338;9.196;2023-02-03T08:36:51;4.13;;;2.00;;
41219;SDS011;26951;47.338;9.196;2023-02-03T08:39:36;3.10;;;1.90;;
41219;SDS011;26951;47.338;9.196;2023-02-03T08:42:20;3.45;;;1.70;;
41219;SDS011;26951;47.338;9.196;2023-02-03T08:45:04;2.65;;;2.15;;
41219;SDS011;26951;47.338;9.196;2023-02-03T08:47:49;2.60;;;1.70;;
41219;SDS011;26951;47.338;9.196;2023-02-03T08:50:33;2.25;;;1.75;;
41219;SDS011;26951;47.338;9.196;2023-02-03T08:53:18;2.63;;;1.52;;
41219;SDS011;26951;47.338;9.196;2023-02-03T08:56:05;4.13;;;1.70;;
41219;SDS011;26951;47.338;9.196;2023-02-03T08:58:51;3.90;;;1.70;;
41219;SDS011;26951;47.338;9.196;2023-02-03T09:01:35;4.13;;;2.13;;
41219;SDS011;26951;47.338;9.196;2023-02-03T09:04:20;4.65;;;2.10;;
41219;SDS011;26951;47.338;9.196;2023-02-03T09:07:07;4.07;;;1.60;;
41219;SDS011;26951;47.338;9.196;2023-02-03T09:09:51;4.07;;;1.77;;
41219;SDS011;26951;47.338;9.196;2023-02-03T09:12:36;1.63;;;1.52;;
41219;SDS011;26951;47.338;9.196;2023-02-03T09:15:20;3.20;;;1.67;;
41219;SDS011;26951;47.338;9.196;2023-02-03T09:18:04;3.10;;;1.73;;
41219;SDS011;26951;47.338;9.196;2023-02-03T09:20:48;4.80;;;1.85;;
41219;SDS011;26951;47.338;9.196;2023-02-03T09:23:32;7.00;;;2.95;;
41219;SDS011;26951;47.338;9.196;2023-02-03T09:26:17;2.60;;;1.80;;
41219;SDS011;26951;47.338;9.196;2023-02-03T09:29:01;6.63;;;1.70;;
41219;SDS011;26951;47.338;9.196;2023-02-03T09:31:45;3.53;;;1.50;;
41219;SDS011;26951;47.338;9.196;2023-02-03T09:34:31;1.85;;;1.40;;
41219;SDS011;26951;47.338;9.196;2023-02-03T09:37:15;1.77;;;1.30;;
41219;SDS011;26951;47.338;9.196;2023-02-03T09:39:59;2.92;;;1.52;;
41219;SDS011;26951;47.338;9.196;2023-02-03T09:42:50;2.42;;;1.40;;
41219;SDS011;26951;47.338;9.196;2023-02-03T09:45:37;2.33;;;1.35;;
41219;SDS011;26951;47.338;9.196;2023-02-03T09:48:23;1.50;;;1.20;;
41219;SDS011;26951;47.338;9.196;2023-02-03T09:51:24;1.90;;;1.45;;
41219;SDS011;26951;47.338;9.196;2023-02-03T10:00:13;3.08;;;1.10;;
41219;SDS011;26951;47.338;9.196;2023-02-03T10:03:07;1.20;;;1.10;;
41219;SDS011;26951;47.338;9.196;2023-02-03T10:18:31;1.63;;;1.27;;
41219;SDS011;26951;47.338;9.196;2023-02-03T10:24:24;3.00;;;1.30;;
41219;SDS011;26951;47.338;9.196;2023-02-03T10:27:31;2.33;;;1.20;;
41219;SDS011;26951;47.338;9.196;2023-02-03T10:33:09;1.15;;;1.05;;
41219;SDS011;26951;47.338;9.196;2023-02-03T10:39:12;3.80;;;1.00;;
41219;SDS011;26951;47.338;9.196;2023-02-03T10:42:02;1.55;;;1.05;;
41219;SDS011;26951;47.338;9.196;2023-02-03T10:47:36;2.13;;;1.20;;
41219;SDS011;26951;47.338;9.196;2023-02-03T10:50:26;2.15;;;1.10;;
41219;SDS011;26951;47.338;9.196;2023-02-03T10:56:08;2.40;;;1.75;;
41219;SDS011;26951;47.338;9.196;2023-02-03T10:58:55;1.88;;;1.40;;
41219;SDS011;26951;47.338;9.196;2023-02-03T11:01:46;2.88;;;1.92;;
41219;SDS011;26951;47.338;9.196;2023-02-03T11:04:31;1.42;;;1.13;;
41219;SDS011;26951;47.338;9.196;2023-02-03T11:07:22;2.67;;;1.20;;
41219;SDS011;26951;47.338;9.196;2023-02-03T11:10:24;2.45;;;1.33;;
41219;SDS011;26951;47.338;9.196;2023-02-03T11:13:24;1.58;;;1.20;;
41219;SDS011;26951;47.338;9.196;2023-02-03T11:16:13;2.17;;;1.40;;
41219;SDS011;26951;47.338;9.196;2023-02-03T11:19:04;2.95;;;1.23;;
41219;SDS011;26951;47.338;9.196;2023-02-03T11:22:03;1.30;;;1.20;;
41219;SDS011;26951;47.338;9.196;2023-02-03T11:24:49;1.63;;;1.27;;
41219;SDS011;26951;47.338;9.196;2023-02-03T11:27:33;4.20;;;1.40;;
41219;SDS011;26951;47.338;9.196;2023-02-03T11:30:26;1.58;;;1.27;;
41219;SDS011;26951;47.338;9.196;2023-02-03T11:33:16;2.13;;;1.23;;
41219;SDS011;26951;47.338;9.196;2023-02-03T11:36:02;3.08;;;1.52;;
41219;SDS011;26951;47.338;9.196;2023-02-03T11:38:47;2.67;;;1.27;;
41219;SDS011;26951;47.338;9.196;2023-02-03T11:41:31;1.27;;;0.93;;
41219;SDS011;26951;47.338;9.196;2023-02-03T11:44:24;1.27;;;1.15;;
41219;SDS011;26951;47.338;9.196;2023-02-03T11:47:12;0.90;;;0.90;;
41219;SDS011;26951;47.338;9.196;2023-02-03T11:50:06;2.38;;;1.23;;
41219;SDS011;26951;47.338;9.196;2023-02-03T12:05:22;1.40;;;1.20;;
41219;SDS011;26951;47.338;9.196;2023-02-03T12:11:26;2.30;;;1.13;;
41219;SDS011;26951;47.338;9.196;2023-02-03T12:17:25;1.33;;;1.02;;
41219;SDS011;26951;47.338;9.196;2023-02-03T12:20:30;2.45;;;1.23;;
41219;SDS011;26951;47.338;9.196;2023-02-03T12:23:34;3.13;;;1.50;;
41219;SDS011;26951;47.338;9.196;2023-02-03T12:29:34;1.08;;;0.80;;
41219;SDS011;26951;47.338;9.196;2023-02-03T12:35:33;2.47;;;1.10;;
41219;SDS011;26951;47.338;9.196;2023-02-03T12:38:26;2.40;;;1.10;;
41219;SDS011;26951;47.338;9.196;2023-02-03T12:41:25;2.53;;;1.75;;
41219;SDS011;26951;47.338;9.196;2023-02-03T12:44:25;2.10;;;1.42;;
41219;SDS011;26951;47.338;9.196;2023-02-03T12:47:36;2.65;;;1.30;;
41219;SDS011;26951;47.338;9.196;2023-02-03T12:50:33;4.03;;;1.20;;
41219;SDS011;26951;47.338;9.196;2023-02-03T12:53:26;3.42;;;1.58;;
41219;SDS011;26951;47.338;9.196;2023-02-03T12:56:26;3.13;;;1.67;;
41219;SDS011;26951;47.338;9.196;2023-02-03T12:59:21;1.75;;;1.48;;
41219;SDS011;26951;47.338;9.196;2023-02-03T13:02:13;4.63;;;1.95;;
41219;SDS011;26951;47.338;9.196;2023-02-03T13:05:08;3.20;;;1.50;;
41219;SDS011;26951;47.338;9.196;2023-02-03T13:08:13;2.53;;;1.70;;
41219;SDS011;26951;47.338;9.196;2023-02-03T13:14:06;1.90;;;1.65;;
41219;SDS011;26951;47.338;9.196;2023-02-03T13:17:07;2.50;;;1.70;;
41219;SDS011;26951;47.338;9.196;2023-02-03T13:20:04;1.90;;;1.58;;
41219;SDS011;26951;47.338;9.196;2023-02-03T13:22:58;3.05;;;1.80;;
41219;SDS011;26951;47.338;9.196;2023-02-03T13:25:49;2.33;;;1.70;;
41219;SDS011;26951;47.338;9.196;2023-02-03T13:32:23;2.25;;;1.40;;
41219;SDS011;26951;47.338;9.196;2023-02-03T13:38:31;2.03;;;1.70;;
41219;SDS011;26951;47.338;9.196;2023-02-03T13:44:27;2.42;;;1.52;;
41219;SDS011;26951;47.338;9.196;2023-02-03T13:47:14;2.13;;;1.55;;
41219;SDS011;26951;47.338;9.196;2023-02-03T13:50:02;2.17;;;1.50;;
41219;SDS011;26951;47.338;9.196;2023-02-03T13:52:54;1.88;;;1.67;;
41219;SDS011;26951;47.338;9.196;2023-02-03T13:55:43;3.08;;;1.63;;
41219;SDS011;26951;47.338;9.196;2023-02-03T13:58:37;3.30;;;2.63;;
41219;SDS011;26951;47.338;9.196;2023-02-03T14:01:29;2.38;;;1.60;;
41219;SDS011;26951;47.338;9.196;2023-02-03T14:07:42;2.15;;;1.40;;
41219;SDS011;26951;47.338;9.196;2023-02-03T14:10:22;5.78;;;1.80;;
41219;SDS011;26951;47.338;9.196;2023-02-03T14:13:17;2.47;;;1.63;;
41219;SDS011;26951;47.338;9.196;2023-02-03T14:16:12;5.30;;;1.63;;
41219;SDS011;26951;47.338;9.196;2023-02-03T14:19:08;3.00;;;1.58;;
41219;SDS011;26951;47.338;9.196;2023-02-03T14:22:04;3.85;;;1.73;;
41219;SDS011;26951;47.338;9.196;2023-02-03T14:24:51;2.67;;;1.60;;
41219;SDS011;26951;47.338;9.196;2023-02-03T14:27:38;1.90;;;1.30;;
41219;SDS011;26951;47.338;9.196;2023-02-03T14:30:23;2.38;;;1.60;;
41219;SDS011;26951;47.338;9.196;2023-02-03T14:33:07;1.75;;;1.40;;
41219;SDS011;26951;47.338;9.196;2023-02-03T14:35:51;1.58;;;1.40;;
41219;SDS011;26951;47.338;9.196;2023-02-03T14:38:35;3.25;;;1.60;;
41219;SDS011;26951;47.338;9.196;2023-02-03T14:41:22;1.90;;;1.75;;
41219;SDS011;26951;47.338;9.196;2023-02-03T14:50:04;3.17;;;1.60;;
41219;SDS011;26951;47.338;9.196;2023-02-03T14:59:09;1.50;;;1.40;;
41219;SDS011;26951;47.338;9.196;2023-02-03T15:07:54;3.17;;;2.53;;
41219;SDS011;26951;47.338;9.196;2023-02-03T15:16:11;2.33;;;1.70;;
41219;SDS011;26951;47.338;9.196;2023-02-03T15:18:59;1.90;;;1.42;;
41219;SDS011;26951;47.338;9.196;2023-02-03T15:21:51;3.13;;;1.63;;
41219;SDS011;26951;47.338;9.196;2023-02-03T15:24:35;2.47;;;1.52;;
41219;SDS011;26951;47.338;9.196;2023-02-03T15:27:24;3.58;;;1.70;;
41219;SDS011;26951;47.338;9.196;2023-02-03T15:30:17;3.67;;;1.75;;
41219;SDS011;26951;47.338;9.196;2023-02-03T15:33:14;2.55;;;1.75;;
41219;SDS011;26951;47.338;9.196;2023-02-03T15:36:05;2.33;;;1.63;;
41219;SDS011;26951;47.338;9.196;2023-02-03T15:38:59;2.10;;;1.75;;
41219;SDS011;26951;47.338;9.196;2023-02-03T15:41:54;2.65;;;1.73;;
41219;SDS011;26951;47.338;9.196;2023-02-03T15:44:42;2.00;;;1.52;;
41219;SDS011;26951;47.338;9.196;2023-02-03T15:47:35;3.28;;;1.98;;
41219;SDS011;26951;47.338;9.196;2023-02-03T15:50:29;3.25;;;1.70;;
41219;SDS011;26951;47.338;9.196;2023-02-03T15:53:21;5.00;;;1.67;;
41219;SDS011;26951;47.338;9.196;2023-02-03T15:59:03;4.38;;;2.00;;
41219;SDS011;26951;47.338;9.196;2023-02-03T16:01:48;2.30;;;1.90;;
41219;SDS011;26951;47.338;9.196;2023-02-03T16:04:32;2.28;;;1.95;;
41219;SDS011;26951;47.338;9.196;2023-02-03T16:07:17;5.50;;;2.10;;
41219;SDS011;26951;47.338;9.196;2023-02-03T16:10:22;3.42;;;2.20;;
41219;SDS011;26951;47.338;9.196;2023-02-03T16:13:20;3.17;;;1.85;;
41219;SDS011;26951;47.338;9.196;2023-02-03T16:16:15;3.25;;;1.88;;
41219;SDS011;26951;47.338;9.196;2023-02-03T16:19:04;4.55;;;1.92;;
41219;SDS011;26951;47.338;9.196;2023-02-03T16:21:56;2.15;;;1.83;;
41219;SDS011;26951;47.338;9.196;2023-02-03T16:24:42;2.47;;;1.75;;
41219;SDS011;26951;47.338;9.196;2023-02-03T16:27:29;4.20;;;2.00;;
41219;SDS011;26951;47.338;9.196;2023-02-03T16:30:21;3.35;;;2.13;;
41219;SDS011;26951;47.338;9.196;2023-02-03T16:33:26;4.32;;;2.33;;
41219;SDS011;26951;47.338;9.196;2023-02-03T16:36:38;3.78;;;2.50;;
41219;SDS011;26951;47.338;9.196;2023-02-03T16:39:42;2.90;;;2.00;;
41219;SDS011;26951;47.338;9.196;2023-02-03T16:42:45;3.42;;;1.88;;
41219;SDS011;26951;47.338;9.196;2023-02-03T16:45:50;9.32;;;5.43;;
41219;SDS011;26951;47.338;9.196;2023-02-03T16:48:57;6.72;;;3.35;;
41219;SDS011;26951;47.338;9.196;2023-02-03T16:52:00;3.40;;;2.33;;
41219;SDS011;26951;47.338;9.196;2023-02-03T16:54:45;3.45;;;2.15;;
41219;SDS011;26951;47.338;9.196;2023-02-03T16:57:29;4.00;;;2.00;;
41219;SDS011;26951;47.338;9.196;2023-02-03T17:00:13;4.70;;;2.28;;
41219;SDS011;26951;47.338;9.196;2023-02-03T17:03:02;2.72;;;2.00;;
41219;SDS011;26951;47.338;9.196;2023-02-03T17:05:47;4.10;;;2.33;;
41219;SDS011;26951;47.338;9.196;2023-02-03T17:08:33;5.80;;;2.53;;
41219;SDS011;26951;47.338;9.196;2023-02-03T17:11:18;2.42;;;2.20;;
41219;SDS011;26951;47.338;9.196;2023-02-03T17:14:03;5.07;;;2.20;;
41219;SDS011;26951;47.338;9.196;2023-02-03T17:16:48;4.80;;;2.83;;
41219;SDS011;26951;47.338;9.196;2023-02-03T17:19:32;4.30;;;2.25;;
41219;SDS011;26951;47.338;9.196;2023-02-03T17:22:16;5.03;;;2.72;;
41219;SDS011;26951;47.338;9.196;2023-02-03T17:25:00;4.65;;;2.15;;
41219;SDS011;26951;47.338;9.196;2023-02-03T17:27:44;3.20;;;1.83;;
41219;SDS011;26951;47.338;9.196;2023-02-03T17:30:28;3.60;;;2.10;;
41219;SDS011;26951;47.338;9.196;2023-02-03T17:33:16;7.20;;;4.20;;
41219;SDS011;26951;47.338;9.196;2023-02-03T17:36:04;3.47;;;2.15;;
41219;SDS011;26951;47.338;9.196;2023-02-03T17:38:51;2.42;;;1.92;;
41219;SDS011;26951;47.338;9.196;2023-02-03T17:41:39;4.03;;;2.40;;
41219;SDS011;26951;47.338;9.196;2023-02-03T17:44:24;3.70;;;2.80;;
41219;SDS011;26951;47.338;9.196;2023-02-03T17:47:08;3.50;;;2.00;;
41219;SDS011;26951;47.338;9.196;2023-02-03T17:49:52;4.80;;;2.10;;
41219;SDS011;26951;47.338;9.196;2023-02-03T17:52:36;2.65;;;2.17;;
41219;SDS011;26951;47.338;9.196;2023-02-03T17:55:20;2.25;;;1.85;;
41219;SDS011;26951;47.338;9.196;2023-02-03T17:58:04;4.00;;;2.20;;
41219;SDS011;26951;47.338;9.196;2023-02-03T18:00:48;3.25;;;2.58;;
41219;SDS011;26951;47.338;9.196;2023-02-03T18:03:32;3.45;;;2.55;;
41219;SDS011;26951;47.338;9.196;2023-02-03T18:06:17;2.45;;;1.77;;
41219;SDS011;26951;47.338;9.196;2023-02-03T18:09:03;2.83;;;1.73;;
41219;SDS011;26951;47.338;9.196;2023-02-03T18:11:49;3.08;;;1.88;;
41219;SDS011;26951;47.338;9.196;2023-02-03T18:14:33;1.95;;;1.60;;
41219;SDS011;26951;47.338;9.196;2023-02-03T18:17:17;3.17;;;1.65;;
41219;SDS011;26951;47.338;9.196;2023-02-03T18:20:01;3.15;;;1.52;;
41219;SDS011;26951;47.338;9.196;2023-02-03T18:22:46;5.30;;;1.73;;
41219;SDS011;26951;47.338;9.196;2023-02-03T18:25:30;3.15;;;2.00;;
41219;SDS011;26951;47.338;9.196;2023-02-03T18:28:16;3.25;;;1.80;;
41219;SDS011;26951;47.338;9.196;2023-02-03T18:31:09;2.25;;;1.98;;
41219;SDS011;26951;47.338;9.196;2023-02-03T18:34:01;4.55;;;2.50;;
41219;SDS011;26951;47.338;9.196;2023-02-03T18:36:45;2.45;;;1.52;;
41219;SDS011;26951;47.338;9.196;2023-02-03T18:39:30;2.17;;;1.83;;
41219;SDS011;26951;47.338;9.196;2023-02-03T18:42:14;2.80;;;1.88;;
41219;SDS011;26951;47.338;9.196;2023-02-03T18:44:58;4.28;;;2.17;;
41219;SDS011;26951;47.338;9.196;2023-02-03T18:47:47;2.92;;;1.90;;
41219;SDS011;26951;47.338;9.196;2023-02-03T18:50:32;3.50;;;2.00;;
41219;SDS011;26951;47.338;9.196;2023-02-03T18:53:16;3.15;;;2.10;;
41219;SDS011;26951;47.338;9.196;2023-02-03T18:56:00;3.55;;;2.00;;
41219;SDS011;26951;47.338;9.196;2023-02-03T18:58:44;5.63;;;2.10;;
41219;SDS011;26951;47.338;9.196;2023-02-03T19:01:29;5.60;;;2.22;;
41219;SDS011;26951;47.338;9.196;2023-02-03T19:04:14;4.47;;;2.50;;
41219;SDS011;26951;47.338;9.196;2023-02-03T19:06:58;2.38;;;2.00;;
41219;SDS011;26951;47.338;9.196;2023-02-03T19:09:42;5.05;;;2.42;;
41219;SDS011;26951;47.338;9.196;2023-02-03T19:12:26;3.05;;;1.80;;